Metar z połowy godziny Komunikat METAR ze strony awiacja.imgw.pl Metar Mil EPKS METAR EPKS 271500Z 11006KT 1500 BR OVC004 01/M00 Q0995 RMK 007 095 8/8=